sensor_id;sensor_type;location;lat;lon;timestamp;P1;durP1;ratioP1;P2;durP2;ratioP2
80297;SDS011;69599;52.622;9.230;2023-09-18T00:02:18;6.15;;;4.60;;
80297;SDS011;69599;52.622;9.230;2023-09-18T00:04:43;7.78;;;5.05;;
80297;SDS011;69599;52.622;9.230;2023-09-18T00:07:09;6.45;;;4.68;;
80297;SDS011;69599;52.622;9.230;2023-09-18T00:09:35;8.57;;;4.75;;
80297;SDS011;69599;52.622;9.230;2023-09-18T00:12:01;5.38;;;4.78;;
80297;SDS011;69599;52.622;9.230;2023-09-18T00:14:26;6.35;;;4.90;;
80297;SDS011;69599;52.622;9.230;2023-09-18T00:16:52;6.65;;;5.05;;
80297;SDS011;69599;52.622;9.230;2023-09-18T00:19:17;7.55;;;4.65;;
80297;SDS011;69599;52.622;9.230;2023-09-18T00:21:43;8.68;;;4.60;;
80297;SDS011;69599;52.622;9.230;2023-09-18T00:24:08;6.35;;;4.60;;
80297;SDS011;69599;52.622;9.230;2023-09-18T00:26:34;6.43;;;4.28;;
80297;SDS011;69599;52.622;9.230;2023-09-18T00:28:59;6.10;;;4.40;;
80297;SDS011;69599;52.622;9.230;2023-09-18T00:31:25;5.57;;;4.65;;
80297;SDS011;69599;52.622;9.230;2023-09-18T00:33:50;8.13;;;4.20;;
80297;SDS011;69599;52.622;9.230;2023-09-18T00:36:15;7.35;;;4.88;;
80297;SDS011;69599;52.622;9.230;2023-09-18T00:38:41;6.13;;;4.68;;
80297;SDS011;69599;52.622;9.230;2023-09-18T00:41:06;6.60;;;4.50;;
80297;SDS011;69599;52.622;9.230;2023-09-18T00:43:32;7.22;;;4.30;;
80297;SDS011;69599;52.622;9.230;2023-09-18T00:45:57;6.30;;;5.60;;
80297;SDS011;69599;52.622;9.230;2023-09-18T00:48:23;6.40;;;4.70;;
80297;SDS011;69599;52.622;9.230;2023-09-18T00:50:48;6.93;;;4.57;;
80297;SDS011;69599;52.622;9.230;2023-09-18T00:53:21;5.40;;;4.63;;
80297;SDS011;69599;52.622;9.230;2023-09-18T00:55:47;5.85;;;5.03;;
80297;SDS011;69599;52.622;9.230;2023-09-18T00:58:12;5.97;;;4.90;;
80297;SDS011;69599;52.622;9.230;2023-09-18T01:00:38;7.38;;;4.60;;
80297;SDS011;69599;52.622;9.230;2023-09-18T01:03:05;7.78;;;4.82;;
80297;SDS011;69599;52.622;9.230;2023-09-18T01:05:33;6.13;;;4.15;;
80297;SDS011;69599;52.622;9.230;2023-09-18T01:08:00;5.40;;;4.32;;
80297;SDS011;69599;52.622;9.230;2023-09-18T01:10:29;7.97;;;5.45;;
80297;SDS011;69599;52.622;9.230;2023-09-18T01:13:10;6.05;;;4.80;;
80297;SDS011;69599;52.622;9.230;2023-09-18T01:16:02;7.40;;;4.90;;
80297;SDS011;69599;52.622;9.230;2023-09-18T01:18:35;6.80;;;4.82;;
80297;SDS011;69599;52.622;9.230;2023-09-18T01:21:01;7.22;;;5.00;;
80297;SDS011;69599;52.622;9.230;2023-09-18T01:23:26;7.20;;;5.05;;
80297;SDS011;69599;52.622;9.230;2023-09-18T01:25:52;6.35;;;4.63;;
80297;SDS011;69599;52.622;9.230;2023-09-18T01:28:17;5.03;;;4.50;;
80297;SDS011;69599;52.622;9.230;2023-09-18T01:30:43;6.10;;;4.72;;
80297;SDS011;69599;52.622;9.230;2023-09-18T01:33:09;8.32;;;4.82;;
80297;SDS011;69599;52.622;9.230;2023-09-18T01:35:35;7.22;;;5.40;;
80297;SDS011;69599;52.622;9.230;2023-09-18T01:38:02;7.63;;;4.55;;
80297;SDS011;69599;52.622;9.230;2023-09-18T01:40:28;6.65;;;4.75;;
80297;SDS011;69599;52.622;9.230;2023-09-18T01:42:54;6.65;;;4.85;;
80297;SDS011;69599;52.622;9.230;2023-09-18T01:45:19;6.78;;;4.80;;
80297;SDS011;69599;52.622;9.230;2023-09-18T01:47:45;8.45;;;5.45;;
80297;SDS011;69599;52.622;9.230;2023-09-18T01:50:11;7.72;;;4.95;;
80297;SDS011;69599;52.622;9.230;2023-09-18T01:52:37;7.10;;;5.18;;
80297;SDS011;69599;52.622;9.230;2023-09-18T01:55:03;7.53;;;4.95;;
80297;SDS011;69599;52.622;9.230;2023-09-18T01:57:32;6.05;;;5.03;;
80297;SDS011;69599;52.622;9.230;2023-09-18T01:59:58;7.95;;;5.90;;
80297;SDS011;69599;52.622;9.230;2023-09-18T02:02:23;6.18;;;4.70;;
80297;SDS011;69599;52.622;9.230;2023-09-18T02:04:49;7.45;;;5.18;;
80297;SDS011;69599;52.622;9.230;2023-09-18T02:07:14;7.68;;;4.65;;
80297;SDS011;69599;52.622;9.230;2023-09-18T02:09:40;7.13;;;4.93;;
80297;SDS011;69599;52.622;9.230;2023-09-18T02:12:06;7.53;;;5.22;;
80297;SDS011;69599;52.622;9.230;2023-09-18T02:14:31;7.35;;;5.00;;
80297;SDS011;69599;52.622;9.230;2023-09-18T02:16:59;6.72;;;4.47;;
80297;SDS011;69599;52.622;9.230;2023-09-18T02:19:24;8.68;;;4.97;;
80297;SDS011;69599;52.622;9.230;2023-09-18T02:21:51;7.10;;;5.50;;
80297;SDS011;69599;52.622;9.230;2023-09-18T02:24:16;11.00;;;5.03;;
80297;SDS011;69599;52.622;9.230;2023-09-18T02:26:42;6.47;;;4.82;;
80297;SDS011;69599;52.622;9.230;2023-09-18T02:29:08;7.65;;;5.03;;
80297;SDS011;69599;52.622;9.230;2023-09-18T02:31:38;7.38;;;4.90;;
80297;SDS011;69599;52.622;9.230;2023-09-18T02:34:04;6.60;;;4.70;;
80297;SDS011;69599;52.622;9.230;2023-09-18T02:36:30;6.43;;;4.45;;
80297;SDS011;69599;52.622;9.230;2023-09-18T02:38:55;6.15;;;4.68;;
80297;SDS011;69599;52.622;9.230;2023-09-18T02:41:20;6.93;;;4.85;;
80297;SDS011;69599;52.622;9.230;2023-09-18T02:43:46;8.40;;;5.45;;
80297;SDS011;69599;52.622;9.230;2023-09-18T02:46:11;6.53;;;4.70;;
80297;SDS011;69599;52.622;9.230;2023-09-18T02:48:37;6.90;;;5.25;;
80297;SDS011;69599;52.622;9.230;2023-09-18T02:51:02;5.22;;;4.38;;
80297;SDS011;69599;52.622;9.230;2023-09-18T02:53:28;9.82;;;4.88;;
80297;SDS011;69599;52.622;9.230;2023-09-18T02:55:55;5.90;;;4.90;;
80297;SDS011;69599;52.622;9.230;2023-09-18T02:58:23;6.55;;;4.07;;
80297;SDS011;69599;52.622;9.230;2023-09-18T03:00:51;11.95;;;4.82;;
80297;SDS011;69599;52.622;9.230;2023-09-18T03:03:17;6.53;;;4.70;;
80297;SDS011;69599;52.622;9.230;2023-09-18T03:05:43;7.68;;;5.07;;
80297;SDS011;69599;52.622;9.230;2023-09-18T03:08:09;6.78;;;4.82;;
80297;SDS011;69599;52.622;9.230;2023-09-18T03:10:36;7.57;;;5.65;;
80297;SDS011;69599;52.622;9.230;2023-09-18T03:13:03;6.18;;;4.93;;
80297;SDS011;69599;52.622;9.230;2023-09-18T03:15:29;7.85;;;4.93;;
80297;SDS011;69599;52.622;9.230;2023-09-18T03:17:55;6.70;;;5.00;;
80297;SDS011;69599;52.622;9.230;2023-09-18T03:20:24;6.57;;;4.93;;
80297;SDS011;69599;52.622;9.230;2023-09-18T03:22:51;8.98;;;6.43;;
80297;SDS011;69599;52.622;9.230;2023-09-18T03:25:17;9.07;;;5.63;;
80297;SDS011;69599;52.622;9.230;2023-09-18T03:27:43;6.13;;;5.25;;
80297;SDS011;69599;52.622;9.230;2023-09-18T03:30:08;7.43;;;5.30;;
80297;SDS011;69599;52.622;9.230;2023-09-18T03:32:37;7.80;;;5.25;;
80297;SDS011;69599;52.622;9.230;2023-09-18T03:35:03;5.22;;;4.70;;
80297;SDS011;69599;52.622;9.230;2023-09-18T03:37:29;7.72;;;5.22;;
80297;SDS011;69599;52.622;9.230;2023-09-18T03:39:54;6.88;;;5.15;;
80297;SDS011;69599;52.622;9.230;2023-09-18T03:42:20;5.75;;;4.88;;
80297;SDS011;69599;52.622;9.230;2023-09-18T03:44:46;7.28;;;4.78;;
80297;SDS011;69599;52.622;9.230;2023-09-18T03:47:11;8.73;;;5.25;;
80297;SDS011;69599;52.622;9.230;2023-09-18T03:49:36;7.20;;;5.38;;
80297;SDS011;69599;52.622;9.230;2023-09-18T03:52:02;6.78;;;4.70;;
80297;SDS011;69599;52.622;9.230;2023-09-18T03:54:27;7.25;;;4.78;;
80297;SDS011;69599;52.622;9.230;2023-09-18T03:56:53;6.30;;;5.05;;
80297;SDS011;69599;52.622;9.230;2023-09-18T03:59:18;8.23;;;4.75;;
80297;SDS011;69599;52.622;9.230;2023-09-18T04:01:44;5.90;;;4.60;;
80297;SDS011;69599;52.622;9.230;2023-09-18T04:04:10;6.30;;;4.25;;
80297;SDS011;69599;52.622;9.230;2023-09-18T04:06:45;5.65;;;4.07;;
80297;SDS011;69599;52.622;9.230;2023-09-18T04:09:11;7.63;;;5.05;;
80297;SDS011;69599;52.622;9.230;2023-09-18T04:11:36;6.80;;;4.50;;
80297;SDS011;69599;52.622;9.230;2023-09-18T04:14:02;6.63;;;4.72;;
80297;SDS011;69599;52.622;9.230;2023-09-18T04:16:30;6.43;;;4.78;;
80297;SDS011;69599;52.622;9.230;2023-09-18T04:19:04;6.63;;;4.55;;
80297;SDS011;69599;52.622;9.230;2023-09-18T04:21:29;6.75;;;4.85;;
80297;SDS011;69599;52.622;9.230;2023-09-18T04:23:55;7.85;;;4.57;;
80297;SDS011;69599;52.622;9.230;2023-09-18T04:26:24;8.43;;;5.20;;
80297;SDS011;69599;52.622;9.230;2023-09-18T04:28:54;5.88;;;4.38;;
80297;SDS011;69599;52.622;9.230;2023-09-18T04:31:20;7.50;;;4.00;;
80297;SDS011;69599;52.622;9.230;2023-09-18T04:33:45;6.10;;;4.57;;
80297;SDS011;69599;52.622;9.230;2023-09-18T04:36:11;5.78;;;4.85;;
80297;SDS011;69599;52.622;9.230;2023-09-18T04:38:37;6.63;;;4.53;;
80297;SDS011;69599;52.622;9.230;2023-09-18T04:41:02;6.85;;;4.70;;
80297;SDS011;69599;52.622;9.230;2023-09-18T04:43:28;7.25;;;4.40;;
80297;SDS011;69599;52.622;9.230;2023-09-18T04:45:56;6.82;;;4.50;;
80297;SDS011;69599;52.622;9.230;2023-09-18T04:48:21;6.28;;;4.53;;
80297;SDS011;69599;52.622;9.230;2023-09-18T04:50:47;6.22;;;4.50;;
80297;SDS011;69599;52.622;9.230;2023-09-18T04:53:13;7.53;;;4.50;;
80297;SDS011;69599;52.622;9.230;2023-09-18T04:55:39;6.13;;;4.32;;
80297;SDS011;69599;52.622;9.230;2023-09-18T04:58:04;12.07;;;4.57;;
80297;SDS011;69599;52.622;9.230;2023-09-18T05:00:30;13.77;;;5.28;;
80297;SDS011;69599;52.622;9.230;2023-09-18T05:02:56;18.35;;;6.80;;
80297;SDS011;69599;52.622;9.230;2023-09-18T05:05:23;15.30;;;5.57;;
80297;SDS011;69599;52.622;9.230;2023-09-18T05:07:48;12.95;;;4.88;;
80297;SDS011;69599;52.622;9.230;2023-09-18T05:10:14;6.95;;;4.90;;
80297;SDS011;69599;52.622;9.230;2023-09-18T05:12:39;10.75;;;5.13;;
80297;SDS011;69599;52.622;9.230;2023-09-18T05:15:05;6.97;;;4.55;;
80297;SDS011;69599;52.622;9.230;2023-09-18T05:17:52;6.20;;;4.50;;
80297;SDS011;69599;52.622;9.230;2023-09-18T05:20:22;9.88;;;4.70;;
80297;SDS011;69599;52.622;9.230;2023-09-18T05:22:49;6.45;;;4.70;;
80297;SDS011;69599;52.622;9.230;2023-09-18T05:25:18;8.73;;;4.60;;
80297;SDS011;69599;52.622;9.230;2023-09-18T05:27:43;6.82;;;4.63;;
80297;SDS011;69599;52.622;9.230;2023-09-18T05:30:19;6.40;;;4.32;;
80297;SDS011;69599;52.622;9.230;2023-09-18T05:32:47;8.57;;;4.75;;
80297;SDS011;69599;52.622;9.230;2023-09-18T05:35:13;8.50;;;4.57;;
80297;SDS011;69599;52.622;9.230;2023-09-18T05:37:40;6.32;;;4.20;;
80297;SDS011;69599;52.622;9.230;2023-09-18T05:40:06;4.97;;;3.88;;
80297;SDS011;69599;52.622;9.230;2023-09-18T05:42:36;5.90;;;4.30;;
80297;SDS011;69599;52.622;9.230;2023-09-18T05:45:08;9.68;;;4.65;;
80297;SDS011;69599;52.622;9.230;2023-09-18T05:47:33;8.45;;;4.25;;
80297;SDS011;69599;52.622;9.230;2023-09-18T05:50:01;9.77;;;5.47;;
80297;SDS011;69599;52.622;9.230;2023-09-18T05:52:28;9.10;;;4.93;;
80297;SDS011;69599;52.622;9.230;2023-09-18T05:54:57;9.38;;;4.45;;
80297;SDS011;69599;52.622;9.230;2023-09-18T05:57:28;9.82;;;4.68;;
80297;SDS011;69599;52.622;9.230;2023-09-18T05:59:56;8.50;;;4.60;;
80297;SDS011;69599;52.622;9.230;2023-09-18T06:02:22;6.88;;;4.35;;
80297;SDS011;69599;52.622;9.230;2023-09-18T06:04:48;7.20;;;4.45;;
80297;SDS011;69599;52.622;9.230;2023-09-18T06:07:13;12.07;;;5.22;;
80297;SDS011;69599;52.622;9.230;2023-09-18T06:09:39;8.20;;;4.75;;
80297;SDS011;69599;52.622;9.230;2023-09-18T06:12:05;7.20;;;4.75;;
80297;SDS011;69599;52.622;9.230;2023-09-18T06:14:31;11.07;;;5.03;;
80297;SDS011;69599;52.622;9.230;2023-09-18T06:17:00;9.30;;;4.57;;
80297;SDS011;69599;52.622;9.230;2023-09-18T06:19:25;5.25;;;4.30;;
80297;SDS011;69599;52.622;9.230;2023-09-18T06:21:51;5.38;;;3.95;;
80297;SDS011;69599;52.622;9.230;2023-09-18T06:24:16;7.32;;;4.43;;
80297;SDS011;69599;52.622;9.230;2023-09-18T06:26:41;25.95;;;6.15;;
80297;SDS011;69599;52.622;9.230;2023-09-18T06:29:07;9.30;;;4.65;;
80297;SDS011;69599;52.622;9.230;2023-09-18T06:31:34;7.28;;;4.68;;
80297;SDS011;69599;52.622;9.230;2023-09-18T06:34:01;7.07;;;4.70;;
80297;SDS011;69599;52.622;9.230;2023-09-18T06:36:27;5.88;;;4.28;;
80297;SDS011;69599;52.622;9.230;2023-09-18T06:38:52;6.05;;;4.50;;
80297;SDS011;69599;52.622;9.230;2023-09-18T06:41:18;8.73;;;4.80;;
80297;SDS011;69599;52.622;9.230;2023-09-18T06:43:44;5.60;;;4.45;;
80297;SDS011;69599;52.622;9.230;2023-09-18T06:46:09;6.10;;;4.43;;
80297;SDS011;69599;52.622;9.230;2023-09-18T06:48:34;6.25;;;4.50;;
80297;SDS011;69599;52.622;9.230;2023-09-18T06:51:00;5.63;;;4.38;;
80297;SDS011;69599;52.622;9.230;2023-09-18T06:53:26;6.03;;;5.20;;
80297;SDS011;69599;52.622;9.230;2023-09-18T06:55:52;6.03;;;4.43;;
80297;SDS011;69599;52.622;9.230;2023-09-18T06:58:18;8.18;;;4.90;;
80297;SDS011;69599;52.622;9.230;2023-09-18T07:00:43;5.32;;;4.80;;
80297;SDS011;69599;52.622;9.230;2023-09-18T07:03:09;7.03;;;4.32;;
80297;SDS011;69599;52.622;9.230;2023-09-18T07:05:35;8.50;;;5.10;;
80297;SDS011;69599;52.622;9.230;2023-09-18T07:08:00;7.13;;;5.00;;
80297;SDS011;69599;52.622;9.230;2023-09-18T07:10:25;7.55;;;4.90;;
80297;SDS011;69599;52.622;9.230;2023-09-18T07:12:51;6.78;;;4.95;;
80297;SDS011;69599;52.622;9.230;2023-09-18T07:15:17;10.02;;;4.22;;
80297;SDS011;69599;52.622;9.230;2023-09-18T07:17:42;7.32;;;5.13;;
80297;SDS011;69599;52.622;9.230;2023-09-18T07:20:08;7.22;;;4.60;;
80297;SDS011;69599;52.622;9.230;2023-09-18T07:22:40;6.15;;;4.38;;
80297;SDS011;69599;52.622;9.230;2023-09-18T07:25:10;6.68;;;4.78;;
80297;SDS011;69599;52.622;9.230;2023-09-18T07:27:35;7.95;;;4.53;;
80297;SDS011;69599;52.622;9.230;2023-09-18T07:30:03;6.38;;;4.90;;
80297;SDS011;69599;52.622;9.230;2023-09-18T07:32:29;6.45;;;4.57;;
80297;SDS011;69599;52.622;9.230;2023-09-18T07:34:55;6.88;;;4.75;;
80297;SDS011;69599;52.622;9.230;2023-09-18T07:37:20;6.07;;;4.72;;
80297;SDS011;69599;52.622;9.230;2023-09-18T07:39:46;8.43;;;4.18;;
80297;SDS011;69599;52.622;9.230;2023-09-18T07:42:12;7.88;;;4.10;;
80297;SDS011;69599;52.622;9.230;2023-09-18T07:44:37;5.20;;;4.10;;
80297;SDS011;69599;52.622;9.230;2023-09-18T07:47:03;6.40;;;4.32;;
80297;SDS011;69599;52.622;9.230;2023-09-18T07:49:28;5.57;;;4.30;;
80297;SDS011;69599;52.622;9.230;2023-09-18T07:51:54;6.82;;;3.85;;
80297;SDS011;69599;52.622;9.230;2023-09-18T07:54:19;5.68;;;4.15;;
80297;SDS011;69599;52.622;9.230;2023-09-18T07:56:45;4.35;;;3.65;;
80297;SDS011;69599;52.622;9.230;2023-09-18T07:59:10;4.72;;;3.60;;
80297;SDS011;69599;52.622;9.230;2023-09-18T08:01:36;5.20;;;3.72;;
80297;SDS011;69599;52.622;9.230;2023-09-18T08:04:01;4.05;;;3.65;;
80297;SDS011;69599;52.622;9.230;2023-09-18T08:06:27;6.15;;;3.80;;
80297;SDS011;69599;52.622;9.230;2023-09-18T08:08:53;8.85;;;3.90;;
80297;SDS011;69599;52.622;9.230;2023-09-18T08:11:18;4.45;;;4.05;;
80297;SDS011;69599;52.622;9.230;2023-09-18T08:13:44;4.93;;;3.47;;
80297;SDS011;69599;52.622;9.230;2023-09-18T08:16:09;5.25;;;3.80;;
80297;SDS011;69599;52.622;9.230;2023-09-18T08:18:35;5.30;;;3.67;;
80297;SDS011;69599;52.622;9.230;2023-09-18T08:21:00;6.10;;;3.72;;
80297;SDS011;69599;52.622;9.230;2023-09-18T08:23:26;5.97;;;3.17;;
80297;SDS011;69599;52.622;9.230;2023-09-18T08:25:51;6.72;;;3.60;;
80297;SDS011;69599;52.622;9.230;2023-09-18T08:28:20;8.18;;;3.92;;
80297;SDS011;69599;52.622;9.230;2023-09-18T08:30:46;5.60;;;3.17;;
80297;SDS011;69599;52.622;9.230;2023-09-18T08:33:15;7.00;;;3.10;;
80297;SDS011;69599;52.622;9.230;2023-09-18T08:35:41;4.55;;;3.20;;
80297;SDS011;69599;52.622;9.230;2023-09-18T08:38:06;4.25;;;3.38;;
80297;SDS011;69599;52.622;9.230;2023-09-18T08:40:33;5.47;;;3.15;;
80297;SDS011;69599;52.622;9.230;2023-09-18T08:42:58;6.30;;;3.45;;
80297;SDS011;69599;52.622;9.230;2023-09-18T08:48:26;5.38;;;2.97;;
80297;SDS011;69599;52.622;9.230;2023-09-18T08:50:59;4.28;;;3.00;;
80297;SDS011;69599;52.622;9.230;2023-09-18T08:53:26;5.18;;;2.92;;
80297;SDS011;69599;52.622;9.230;2023-09-18T08:55:51;4.30;;;2.60;;
80297;SDS011;69599;52.622;9.230;2023-09-18T08:58:22;5.68;;;2.97;;
80297;SDS011;69599;52.622;9.230;2023-09-18T09:00:48;5.80;;;2.65;;
80297;SDS011;69599;52.622;9.230;2023-09-18T09:03:15;5.85;;;2.85;;
80297;SDS011;69599;52.622;9.230;2023-09-18T09:05:40;6.80;;;2.90;;
80297;SDS011;69599;52.622;9.230;2023-09-18T09:08:05;6.80;;;3.00;;
80297;SDS011;69599;52.622;9.230;2023-09-18T09:10:31;6.32;;;2.72;;
80297;SDS011;69599;52.622;9.230;2023-09-18T09:12:57;5.13;;;2.67;;
80297;SDS011;69599;52.622;9.230;2023-09-18T09:15:27;6.72;;;2.90;;
80297;SDS011;69599;52.622;9.230;2023-09-18T09:18:07;5.22;;;2.92;;
80297;SDS011;69599;52.622;9.230;2023-09-18T09:20:34;4.43;;;2.33;;
80297;SDS011;69599;52.622;9.230;2023-09-18T09:23:04;4.80;;;2.90;;
80297;SDS011;69599;52.622;9.230;2023-09-18T09:25:32;5.10;;;2.45;;
80297;SDS011;69599;52.622;9.230;2023-09-18T09:27:58;5.00;;;2.80;;
80297;SDS011;69599;52.622;9.230;2023-09-18T09:30:25;5.97;;;2.63;;
80297;SDS011;69599;52.622;9.230;2023-09-18T09:32:52;7.88;;;2.65;;
80297;SDS011;69599;52.622;9.230;2023-09-18T09:35:29;5.38;;;2.50;;
80297;SDS011;69599;52.622;9.230;2023-09-18T09:37:56;5.72;;;2.60;;
80297;SDS011;69599;52.622;9.230;2023-09-18T09:40:26;6.45;;;2.47;;
80297;SDS011;69599;52.622;9.230;2023-09-18T09:42:53;4.97;;;2.28;;
80297;SDS011;69599;52.622;9.230;2023-09-18T09:45:25;5.05;;;2.30;;
80297;SDS011;69599;52.622;9.230;2023-09-18T09:47:55;6.47;;;2.40;;
80297;SDS011;69599;52.622;9.230;2023-09-18T09:50:21;6.28;;;2.30;;
80297;SDS011;69599;52.622;9.230;2023-09-18T09:52:47;4.90;;;2.30;;
80297;SDS011;69599;52.622;9.230;2023-09-18T09:55:20;8.00;;;2.97;;
80297;SDS011;69599;52.622;9.230;2023-09-18T09:57:54;5.30;;;2.28;;
80297;SDS011;69599;52.622;9.230;2023-09-18T10:00:29;3.25;;;2.00;;
80297;SDS011;69599;52.622;9.230;2023-09-18T10:03:06;7.65;;;2.70;;
80297;SDS011;69599;52.622;9.230;2023-09-18T10:05:37;6.00;;;2.35;;
80297;SDS011;69599;52.622;9.230;2023-09-18T10:08:06;7.18;;;2.10;;
80297;SDS011;69599;52.622;9.230;2023-09-18T10:10:33;7.03;;;2.28;;
80297;SDS011;69599;52.622;9.230;2023-09-18T10:13:03;5.63;;;1.80;;
80297;SDS011;69599;52.622;9.230;2023-09-18T10:15:33;3.88;;;1.42;;
80297;SDS011;69599;52.622;9.230;2023-09-18T10:18:03;4.60;;;2.30;;
80297;SDS011;69599;52.622;9.230;2023-09-18T10:20:32;4.32;;;1.83;;
80297;SDS011;69599;52.622;9.230;2023-09-18T10:23:01;4.50;;;1.35;;
80297;SDS011;69599;52.622;9.230;2023-09-18T10:27:56;4.55;;;2.00;;
80297;SDS011;69599;52.622;9.230;2023-09-18T10:30:23;3.72;;;1.85;;
80297;SDS011;69599;52.622;9.230;2023-09-18T10:32:50;3.75;;;1.85;;
80297;SDS011;69599;52.622;9.230;2023-09-18T10:35:16;6.07;;;2.15;;
80297;SDS011;69599;52.622;9.230;2023-09-18T10:37:42;4.65;;;1.75;;
80297;SDS011;69599;52.622;9.230;2023-09-18T10:40:09;7.30;;;1.88;;
80297;SDS011;69599;52.622;9.230;2023-09-18T10:42:35;4.15;;;1.50;;
80297;SDS011;69599;52.622;9.230;2023-09-18T10:45:02;3.72;;;1.95;;
80297;SDS011;69599;52.622;9.230;2023-09-18T10:47:31;5.20;;;1.80;;
80297;SDS011;69599;52.622;9.230;2023-09-18T10:49:57;4.43;;;1.77;;
80297;SDS011;69599;52.622;9.230;2023-09-18T10:52:23;4.53;;;1.85;;
80297;SDS011;69599;52.622;9.230;2023-09-18T10:54:48;3.22;;;1.33;;
80297;SDS011;69599;52.622;9.230;2023-09-18T10:57:14;5.43;;;1.77;;
80297;SDS011;69599;52.622;9.230;2023-09-18T10:59:43;3.88;;;1.70;;
80297;SDS011;69599;52.622;9.230;2023-09-18T11:02:13;5.18;;;1.85;;
80297;SDS011;69599;52.622;9.230;2023-09-18T11:04:40;6.50;;;1.75;;
80297;SDS011;69599;52.622;9.230;2023-09-18T11:07:06;4.97;;;1.63;;
80297;SDS011;69599;52.622;9.230;2023-09-18T11:09:39;5.55;;;1.98;;
80297;SDS011;69599;52.622;9.230;2023-09-18T11:12:09;4.95;;;1.85;;
80297;SDS011;69599;52.622;9.230;2023-09-18T11:14:49;4.57;;;1.60;;
80297;SDS011;69599;52.622;9.230;2023-09-18T11:17:31;5.43;;;1.92;;
80297;SDS011;69599;52.622;9.230;2023-09-18T11:20:04;3.63;;;1.48;;
80297;SDS011;69599;52.622;9.230;2023-09-18T11:22:57;4.32;;;1.98;;
80297;SDS011;69599;52.622;9.230;2023-09-18T11:25:36;4.18;;;1.90;;
80297;SDS011;69599;52.622;9.230;2023-09-18T11:28:03;5.15;;;2.00;;
80297;SDS011;69599;52.622;9.230;2023-09-18T11:30:32;4.53;;;1.90;;
80297;SDS011;69599;52.622;9.230;2023-09-18T11:33:00;2.88;;;1.42;;
80297;SDS011;69599;52.622;9.230;2023-09-18T11:35:27;5.10;;;1.80;;
80297;SDS011;69599;52.622;9.230;2023-09-18T11:38:06;5.25;;;1.65;;
80297;SDS011;69599;52.622;9.230;2023-09-18T11:40:35;5.30;;;1.95;;
80297;SDS011;69599;52.622;9.230;2023-09-18T11:45:48;5.93;;;2.10;;
80297;SDS011;69599;52.622;9.230;2023-09-18T11:48:16;3.80;;;1.83;;
80297;SDS011;69599;52.622;9.230;2023-09-18T11:50:43;3.95;;;1.90;;
80297;SDS011;69599;52.622;9.230;2023-09-18T11:53:10;7.32;;;1.92;;
80297;SDS011;69599;52.622;9.230;2023-09-18T11:55:38;4.00;;;1.85;;
80297;SDS011;69599;52.622;9.230;2023-09-18T11:58:04;5.50;;;1.83;;
80297;SDS011;69599;52.622;9.230;2023-09-18T12:00:30;5.50;;;1.77;;
80297;SDS011;69599;52.622;9.230;2023-09-18T12:02:56;4.55;;;2.17;;
80297;SDS011;69599;52.622;9.230;2023-09-18T12:05:23;5.82;;;1.83;;
80297;SDS011;69599;52.622;9.230;2023-09-18T12:07:51;5.03;;;2.20;;
80297;SDS011;69599;52.622;9.230;2023-09-18T12:10:17;5.28;;;2.10;;
80297;SDS011;69599;52.622;9.230;2023-09-18T12:12:44;7.72;;;2.40;;
80297;SDS011;69599;52.622;9.230;2023-09-18T12:15:12;3.90;;;2.33;;
80297;SDS011;69599;52.622;9.230;2023-09-18T12:17:40;3.83;;;2.05;;
80297;SDS011;69599;52.622;9.230;2023-09-18T12:20:05;3.08;;;1.80;;
80297;SDS011;69599;52.622;9.230;2023-09-18T12:22:31;3.47;;;2.03;;
80297;SDS011;69599;52.622;9.230;2023-09-18T12:25:14;2.88;;;1.50;;
80297;SDS011;69599;52.622;9.230;2023-09-18T12:27:42;2.80;;;1.63;;
80297;SDS011;69599;52.622;9.230;2023-09-18T12:30:07;4.72;;;1.95;;
80297;SDS011;69599;52.622;9.230;2023-09-18T12:32:35;4.25;;;1.58;;
80297;SDS011;69599;52.622;9.230;2023-09-18T12:35:02;4.88;;;1.80;;
80297;SDS011;69599;52.622;9.230;2023-09-18T12:37:31;4.78;;;2.47;;
80297;SDS011;69599;52.622;9.230;2023-09-18T12:39:56;4.65;;;1.75;;
80297;SDS011;69599;52.622;9.230;2023-09-18T12:42:21;5.97;;;3.17;;
80297;SDS011;69599;52.622;9.230;2023-09-18T12:44:47;3.80;;;1.95;;
80297;SDS011;69599;52.622;9.230;2023-09-18T12:47:14;3.67;;;1.92;;
80297;SDS011;69599;52.622;9.230;2023-09-18T12:49:39;4.10;;;2.13;;
80297;SDS011;69599;52.622;9.230;2023-09-18T12:52:05;2.95;;;2.03;;
80297;SDS011;69599;52.622;9.230;2023-09-18T12:54:51;4.57;;;1.98;;
80297;SDS011;69599;52.622;9.230;2023-09-18T12:57:21;2.85;;;1.80;;
80297;SDS011;69599;52.622;9.230;2023-09-18T12:59:46;4.57;;;1.98;;
80297;SDS011;69599;52.622;9.230;2023-09-18T13:02:16;7.18;;;2.00;;
80297;SDS011;69599;52.622;9.230;2023-09-18T13:04:47;4.63;;;1.60;;
80297;SDS011;69599;52.622;9.230;2023-09-18T13:07:19;2.65;;;2.13;;
80297;SDS011;69599;52.622;9.230;2023-09-18T13:15:10;4.47;;;2.08;;
80297;SDS011;69599;52.622;9.230;2023-09-18T13:17:44;4.28;;;2.40;;
80297;SDS011;69599;52.622;9.230;2023-09-18T13:22:47;3.53;;;1.92;;
80297;SDS011;69599;52.622;9.230;2023-09-18T13:25:18;4.30;;;2.20;;
80297;SDS011;69599;52.622;9.230;2023-09-18T13:27:44;4.90;;;1.98;;
80297;SDS011;69599;52.622;9.230;2023-09-18T13:30:10;3.50;;;1.98;;
80297;SDS011;69599;52.622;9.230;2023-09-18T13:32:36;5.85;;;2.10;;
80297;SDS011;69599;52.622;9.230;2023-09-18T13:35:04;5.25;;;1.77;;
80297;SDS011;69599;52.622;9.230;2023-09-18T13:37:31;3.45;;;1.52;;
80297;SDS011;69599;52.622;9.230;2023-09-18T13:39:57;4.05;;;1.83;;
80297;SDS011;69599;52.622;9.230;2023-09-18T13:42:22;5.60;;;1.60;;
80297;SDS011;69599;52.622;9.230;2023-09-18T13:44:48;4.60;;;1.92;;
80297;SDS011;69599;52.622;9.230;2023-09-18T13:47:14;4.90;;;1.70;;
80297;SDS011;69599;52.622;9.230;2023-09-18T13:49:40;5.80;;;1.45;;
80297;SDS011;69599;52.622;9.230;2023-09-18T13:52:05;6.40;;;1.80;;
80297;SDS011;69599;52.622;9.230;2023-09-18T13:54:31;4.07;;;1.70;;
80297;SDS011;69599;52.622;9.230;2023-09-18T13:56:56;4.45;;;1.92;;
80297;SDS011;69599;52.622;9.230;2023-09-18T13:59:22;2.80;;;1.35;;
80297;SDS011;69599;52.622;9.230;2023-09-18T14:01:47;4.90;;;1.80;;
80297;SDS011;69599;52.622;9.230;2023-09-18T14:04:12;4.45;;;1.67;;
80297;SDS011;69599;52.622;9.230;2023-09-18T14:06:38;3.63;;;1.55;;
80297;SDS011;69599;52.622;9.230;2023-09-18T14:09:03;3.03;;;1.45;;
80297;SDS011;69599;52.622;9.230;2023-09-18T14:11:30;2.45;;;1.50;;
80297;SDS011;69599;52.622;9.230;2023-09-18T14:13:56;3.13;;;1.65;;
80297;SDS011;69599;52.622;9.230;2023-09-18T14:16:21;3.70;;;1.75;;
80297;SDS011;69599;52.622;9.230;2023-09-18T14:18:47;2.15;;;1.25;;
80297;SDS011;69599;52.622;9.230;2023-09-18T14:21:12;5.05;;;1.95;;
80297;SDS011;69599;52.622;9.230;2023-09-18T14:23:38;4.70;;;1.45;;
80297;SDS011;69599;52.622;9.230;2023-09-18T14:26:04;2.60;;;1.35;;
80297;SDS011;69599;52.622;9.230;2023-09-18T14:28:30;3.25;;;1.52;;
80297;SDS011;69599;52.622;9.230;2023-09-18T14:30:57;3.83;;;1.40;;
80297;SDS011;69599;52.622;9.230;2023-09-18T14:33:23;2.28;;;1.35;;
80297;SDS011;69599;52.622;9.230;2023-09-18T14:35:48;2.90;;;1.52;;
80297;SDS011;69599;52.622;9.230;2023-09-18T14:38:14;4.45;;;1.45;;
80297;SDS011;69599;52.622;9.230;2023-09-18T14:40:42;4.95;;;1.80;;
80297;SDS011;69599;52.622;9.230;2023-09-18T14:43:08;3.08;;;1.38;;
80297;SDS011;69599;52.622;9.230;2023-09-18T14:45:33;4.55;;;1.55;;
80297;SDS011;69599;52.622;9.230;2023-09-18T14:48:00;2.95;;;1.40;;
80297;SDS011;69599;52.622;9.230;2023-09-18T14:50:25;3.42;;;1.35;;
80297;SDS011;69599;52.622;9.230;2023-09-18T14:52:51;2.75;;;1.20;;
80297;SDS011;69599;52.622;9.230;2023-09-18T14:55:16;3.03;;;1.50;;
80297;SDS011;69599;52.622;9.230;2023-09-18T14:57:41;5.40;;;1.75;;
80297;SDS011;69599;52.622;9.230;2023-09-18T15:00:07;3.08;;;1.38;;
80297;SDS011;69599;52.622;9.230;2023-09-18T15:02:33;3.03;;;1.30;;
80297;SDS011;69599;52.622;9.230;2023-09-18T15:05:00;3.28;;;1.50;;